RYR8UB EPMO-LGKR
Flight info
| Callsign | RYR8UB |
|---|---|
| Flight time | N/A |
| Altitude | 38000 |
| Route | EVINA DCT KUKAM DCT MEBAN/N0447F370 DCT DODAR DCT EBORO DCT PARAK/N0443F380 DCT POD DCT RODON/N0434F370 DCT LIMJA N732 PITAS |
| Aircraft | B738/M-SDE3FGILRWY/SB1 |
Departure
| Time | 2026-04-21 07:50 |
|---|---|
| Airport | Warsaw Modlin Airport (EPMO) |
Arrival
| Time | N/A |
|---|---|
| Airport | Corfu Ioannis Kapodistrias International Airport (LGKR) |
| Time | Latitude | Longitude | Altitude | Speed | Heading |
|---|---|---|---|---|---|
| 2026-04-21 07:33 | 52.44736 | 20.65178 | 337 ft | 0 kts | 206° |
| 2026-04-21 07:40 | 52.44746 | 20.65185 | 337 ft | 4 kts | 207° |
| 2026-04-21 07:40 | 52.44769 | 20.65208 | 332 ft | 4 kts | 217° |
| 2026-04-21 07:41 | 52.44787 | 20.65238 | 332 ft | 4 kts | 245° |
| 2026-04-21 07:41 | 52.44791 | 20.65256 | 332 ft | 0 kts | 261° |
| 2026-04-21 07:43 | 52.44791 | 20.65253 | 332 ft | 1 kts | 261° |
| 2026-04-21 07:43 | 52.44789 | 20.65235 | 335 ft | 3 kts | 261° |
| 2026-04-21 07:44 | 52.44785 | 20.65193 | 333 ft | 5 kts | 261° |
| 2026-04-21 07:44 | 52.44777 | 20.65112 | 333 ft | 8 kts | 261° |
| 2026-04-21 07:44 | 52.44769 | 20.65017 | 335 ft | 8 kts | 261° |
| 2026-04-21 07:44 | 52.44760 | 20.64924 | 336 ft | 8 kts | 261° |
| 2026-04-21 07:45 | 52.44751 | 20.64834 | 335 ft | 8 kts | 261° |
| 2026-04-21 07:45 | 52.44742 | 20.64732 | 337 ft | 11 kts | 261° |
| 2026-04-21 07:45 | 52.44728 | 20.64586 | 337 ft | 14 kts | 261° |
| 2026-04-21 07:45 | 52.44712 | 20.64426 | 337 ft | 14 kts | 261° |
| 2026-04-21 07:46 | 52.44698 | 20.64273 | 337 ft | 13 kts | 261° |
| 2026-04-21 07:46 | 52.44684 | 20.64126 | 335 ft | 13 kts | 261° |
| 2026-04-21 07:46 | 52.44671 | 20.63983 | 337 ft | 13 kts | 261° |
| 2026-04-21 07:46 | 52.44658 | 20.63844 | 336 ft | 12 kts | 261° |
| 2026-04-21 07:47 | 52.44644 | 20.63708 | 337 ft | 12 kts | 261° |
| 2026-04-21 07:47 | 52.44632 | 20.63576 | 335 ft | 11 kts | 261° |
| 2026-04-21 07:47 | 52.44640 | 20.63467 | 335 ft | 10 kts | 313° |
| 2026-04-21 07:47 | 52.44705 | 20.63438 | 334 ft | 10 kts | 352° |
| 2026-04-21 07:48 | 52.44770 | 20.63423 | 336 ft | 9 kts | 352° |
| 2026-04-21 07:48 | 52.44834 | 20.63407 | 335 ft | 9 kts | 352° |
| 2026-04-21 07:48 | 52.44897 | 20.63396 | 333 ft | 9 kts | 358° |
| 2026-04-21 07:48 | 52.44950 | 20.63438 | 336 ft | 9 kts | 47° |
| 2026-04-21 07:49 | 52.44962 | 20.63489 | 336 ft | 0 kts | 80° |
| 2026-04-21 07:49 | 52.44974 | 20.63608 | 335 ft | 40 kts | 81° |
| 2026-04-21 07:49 | 52.45055 | 20.64471 | 333 ft | 111 kts | 81° |
| 2026-04-21 07:49 | 52.45208 | 20.66058 | 362 ft | 166 kts | 81° |
| 2026-04-21 07:50 | 52.45393 | 20.67895 | 1214 ft | 156 kts | 76° |
| 2026-04-21 07:50 | 52.45591 | 20.69686 | 2006 ft | 166 kts | 76° |
| 2026-04-21 07:50 | 52.45829 | 20.71727 | 2356 ft | 197 kts | 76° |
| 2026-04-21 07:50 | 52.46123 | 20.74012 | 2862 ft | 210 kts | 69° |
| 2026-04-21 07:51 | 52.46901 | 20.76026 | 3571 ft | 212 kts | 44° |
| 2026-04-21 07:51 | 52.48077 | 20.77563 | 4160 ft | 226 kts | 33° |
| 2026-04-21 07:51 | 52.49645 | 20.78264 | 4672 ft | 247 kts | 356° |
| 2026-04-21 07:51 | 52.51351 | 20.77739 | 5605 ft | 251 kts | 351° |
| 2026-04-21 07:52 | 52.53086 | 20.77219 | 6540 ft | 256 kts | 352° |
| 2026-04-21 07:52 | 52.54856 | 20.76738 | 7376 ft | 260 kts | 353° |
| 2026-04-21 07:52 | 52.56661 | 20.76272 | 8217 ft | 265 kts | 353° |
| 2026-04-21 07:52 | 52.58497 | 20.75811 | 9057 ft | 269 kts | 355° |
| 2026-04-21 07:53 | 52.60352 | 20.76048 | 9884 ft | 270 kts | 22° |
| 2026-04-21 07:53 | 52.61916 | 20.77699 | 10682 ft | 271 kts | 46° |
| 2026-04-21 07:53 | 52.62932 | 20.80415 | 11111 ft | 289 kts | 71° |
| 2026-04-21 07:53 | 52.63250 | 20.83724 | 11816 ft | 297 kts | 84° |
| 2026-04-21 07:54 | 52.63359 | 20.87143 | 12655 ft | 300 kts | 85° |
| 2026-04-21 07:54 | 52.63474 | 20.90582 | 13500 ft | 302 kts | 84° |
| 2026-04-21 07:54 | 52.63601 | 20.94041 | 14321 ft | 303 kts | 84° |
| 2026-04-21 07:54 | 52.63560 | 20.97487 | 15023 ft | 311 kts | 99° |
| 2026-04-21 07:55 | 52.62700 | 21.00819 | 15660 ft | 326 kts | 120° |
| 2026-04-21 07:55 | 52.61069 | 21.03606 | 15908 ft | 352 kts | 140° |
| 2026-04-21 07:55 | 52.58995 | 21.05881 | 16444 ft | 362 kts | 143° |
| 2026-04-21 07:55 | 52.56854 | 21.08120 | 17147 ft | 366 kts | 144° |
| 2026-04-21 07:56 | 52.54705 | 21.10357 | 17901 ft | 368 kts | 144° |
| 2026-04-21 07:56 | 52.52535 | 21.12634 | 18589 ft | 371 kts | 143° |
| 2026-04-21 07:56 | 52.50357 | 21.14941 | 19187 ft | 374 kts | 143° |
| 2026-04-21 07:56 | 52.48164 | 21.17278 | 19800 ft | 377 kts | 143° |
| 2026-04-21 07:57 | 52.45957 | 21.19630 | 20399 ft | 380 kts | 143° |
| 2026-04-21 07:57 | 52.43727 | 21.21985 | 20997 ft | 384 kts | 146° |
| 2026-04-21 07:57 | 52.41199 | 21.23554 | 21532 ft | 397 kts | 168° |
| 2026-04-21 07:57 | 52.38414 | 21.23461 | 22125 ft | 406 kts | 190° |
| 2026-04-21 07:58 | 52.35780 | 21.21722 | 22704 ft | 414 kts | 212° |
| 2026-04-21 07:58 | 52.33639 | 21.18549 | 23229 ft | 420 kts | 230° |
| 2026-04-21 07:58 | 52.31841 | 21.14758 | 23819 ft | 422 kts | 232° |
| 2026-04-21 07:58 | 52.30094 | 21.10978 | 24320 ft | 423 kts | 232° |
| 2026-04-21 07:59 | 52.28277 | 21.07146 | 24685 ft | 429 kts | 231° |
| 2026-04-21 07:59 | 52.26416 | 21.03312 | 25020 ft | 434 kts | 230° |
| 2026-04-21 07:59 | 52.24389 | 20.99638 | 25406 ft | 437 kts | 223° |
| 2026-04-21 07:59 | 52.22142 | 20.96276 | 25817 ft | 439 kts | 219° |
| 2026-04-21 08:00 | 52.19808 | 20.93015 | 26193 ft | 443 kts | 218° |
| 2026-04-21 08:00 | 52.17448 | 20.89747 | 26547 ft | 447 kts | 218° |
| 2026-04-21 08:00 | 52.15080 | 20.86421 | 26906 ft | 452 kts | 218° |
| 2026-04-21 08:00 | 52.12710 | 20.83038 | 27285 ft | 455 kts | 219° |
| 2026-04-21 08:01 | 52.10331 | 20.79599 | 27724 ft | 457 kts | 219° |
| 2026-04-21 08:01 | 52.07956 | 20.76147 | 28112 ft | 460 kts | 219° |
| 2026-04-21 08:01 | 52.05561 | 20.72665 | 28431 ft | 464 kts | 219° |
| 2026-04-21 08:02 | 52.00706 | 20.65624 | 29063 ft | 471 kts | 219° |
| 2026-04-21 08:02 | 51.98284 | 20.62124 | 29408 ft | 474 kts | 219° |
| 2026-04-21 08:02 | 51.95800 | 20.58586 | 29715 ft | 476 kts | 216° |
| 2026-04-21 08:02 | 51.92989 | 20.55825 | 29959 ft | 470 kts | 196° |
| 2026-04-21 08:03 | 51.89895 | 20.54116 | 30380 ft | 468 kts | 195° |
| 2026-04-21 08:03 | 51.86813 | 20.52433 | 30715 ft | 468 kts | 196° |
| 2026-04-21 08:03 | 51.83723 | 20.50695 | 30957 ft | 471 kts | 197° |
| 2026-04-21 08:03 | 51.80626 | 20.48914 | 31222 ft | 473 kts | 197° |
| 2026-04-21 08:04 | 51.77529 | 20.47109 | 31575 ft | 472 kts | 197° |
| 2026-04-21 08:04 | 51.74448 | 20.45308 | 31985 ft | 470 kts | 198° |
| 2026-04-21 08:04 | 51.71413 | 20.43537 | 32358 ft | 469 kts | 198° |
| 2026-04-21 08:04 | 51.68337 | 20.41752 | 32680 ft | 469 kts | 198° |
| 2026-04-21 08:05 | 51.65252 | 20.40027 | 32996 ft | 468 kts | 193° |
| 2026-04-21 08:05 | 51.62056 | 20.39131 | 33308 ft | 464 kts | 183° |
| 2026-04-21 08:05 | 51.58839 | 20.38725 | 33679 ft | 463 kts | 182° |
| 2026-04-21 08:05 | 51.55620 | 20.38381 | 33981 ft | 463 kts | 182° |
| 2026-04-21 08:06 | 51.52403 | 20.38002 | 34238 ft | 464 kts | 182° |
| 2026-04-21 08:06 | 51.49187 | 20.37567 | 34491 ft | 464 kts | 183° |
| 2026-04-21 08:06 | 51.45976 | 20.37091 | 34757 ft | 463 kts | 184° |
| 2026-04-21 08:06 | 51.42759 | 20.36601 | 34983 ft | 463 kts | 184° |
| 2026-04-21 08:07 | 51.39548 | 20.36109 | 35225 ft | 463 kts | 185° |
| 2026-04-21 08:07 | 51.36414 | 20.35134 | 35418 ft | 465 kts | 196° |
| 2026-04-21 08:07 | 51.33320 | 20.33572 | 35662 ft | 465 kts | 198° |
| 2026-04-21 08:07 | 51.30263 | 20.31878 | 35900 ft | 465 kts | 199° |
| 2026-04-21 08:08 | 51.27210 | 20.30164 | 36112 ft | 465 kts | 199° |
| 2026-04-21 08:08 | 51.24144 | 20.28476 | 36327 ft | 465 kts | 198° |
| 2026-04-21 08:08 | 51.21079 | 20.26833 | 36568 ft | 465 kts | 198° |
| 2026-04-21 08:08 | 51.18005 | 20.25221 | 36832 ft | 463 kts | 198° |
| 2026-04-21 08:09 | 51.14936 | 20.23634 | 37048 ft | 464 kts | 198° |
| 2026-04-21 08:09 | 51.11867 | 20.22057 | 37229 ft | 464 kts | 198° |
| 2026-04-21 08:09 | 51.08826 | 20.20500 | 37430 ft | 464 kts | 198° |
| 2026-04-21 08:09 | 51.05752 | 20.18927 | 37645 ft | 464 kts | 198° |
| 2026-04-21 08:10 | 51.02679 | 20.17355 | 37846 ft | 464 kts | 198° |
| 2026-04-21 08:10 | 50.99608 | 20.15783 | 38025 ft | 464 kts | 198° |
| 2026-04-21 08:10 | 50.96527 | 20.14209 | 38134 ft | 466 kts | 198° |
| 2026-04-21 08:11 | 50.90341 | 20.11053 | 38129 ft | 465 kts | 198° |
| 2026-04-21 08:11 | 50.84196 | 20.07926 | 38121 ft | 461 kts | 198° |
| 2026-04-21 08:12 | 50.78049 | 20.05090 | 38115 ft | 459 kts | 193° |
| 2026-04-21 08:12 | 50.71802 | 20.03139 | 38119 ft | 457 kts | 191° |
| 2026-04-21 08:13 | 50.66610 | 20.01623 | 38115 ft | 456 kts | 192° |
| 2026-04-21 08:13 | 50.60373 | 19.99744 | 38113 ft | 456 kts | 192° |
| 2026-04-21 08:14 | 50.53116 | 19.97495 | 38106 ft | 457 kts | 192° |
| 2026-04-21 08:14 | 50.47909 | 19.95871 | 38116 ft | 459 kts | 192° |
| 2026-04-21 08:15 | 50.41626 | 19.93916 | 38117 ft | 461 kts | 192° |
| 2026-04-21 08:15 | 50.35306 | 19.91957 | 38119 ft | 463 kts | 192° |
| 2026-04-21 08:16 | 50.28952 | 19.89994 | 38114 ft | 465 kts | 192° |
| 2026-04-21 08:16 | 50.22574 | 19.88030 | 38125 ft | 467 kts | 192° |
| 2026-04-21 08:17 | 50.16185 | 19.86067 | 38129 ft | 468 kts | 192° |
| 2026-04-21 08:17 | 50.09790 | 19.84108 | 38130 ft | 468 kts | 192° |
| 2026-04-21 08:18 | 50.03431 | 19.82166 | 38131 ft | 468 kts | 193° |
| 2026-04-21 08:18 | 49.97049 | 19.80221 | 38124 ft | 467 kts | 193° |
| 2026-04-21 08:19 | 49.90673 | 19.78283 | 38091 ft | 465 kts | 192° |
| 2026-04-21 08:19 | 49.84313 | 19.76356 | 38082 ft | 464 kts | 193° |
| 2026-04-21 08:20 | 49.77983 | 19.74443 | 38084 ft | 462 kts | 193° |
| 2026-04-21 08:20 | 49.71676 | 19.72541 | 38087 ft | 461 kts | 193° |
| 2026-04-21 08:21 | 49.65375 | 19.70646 | 38087 ft | 460 kts | 193° |
| 2026-04-21 08:21 | 49.59090 | 19.68761 | 38084 ft | 459 kts | 193° |
| 2026-04-21 08:22 | 49.52858 | 19.66896 | 38077 ft | 459 kts | 193° |
| 2026-04-21 08:22 | 49.46588 | 19.65027 | 38082 ft | 459 kts | 192° |
| 2026-04-21 08:23 | 49.40223 | 19.64170 | 38081 ft | 461 kts | 184° |
| 2026-04-21 08:23 | 49.33809 | 19.63926 | 38067 ft | 461 kts | 183° |
| 2026-04-21 08:24 | 49.27387 | 19.63671 | 38057 ft | 462 kts | 184° |
| 2026-04-21 08:24 | 49.20952 | 19.63350 | 38068 ft | 463 kts | 184° |
| 2026-04-21 08:25 | 49.14505 | 19.62998 | 38039 ft | 463 kts | 184° |
| 2026-04-21 08:25 | 49.08054 | 19.62641 | 38043 ft | 463 kts | 184° |
| 2026-04-21 08:26 | 49.01600 | 19.62287 | 38039 ft | 464 kts | 184° |
| 2026-04-21 08:26 | 48.95139 | 19.61934 | 38022 ft | 465 kts | 184° |
| 2026-04-21 08:27 | 48.88676 | 19.61583 | 38032 ft | 464 kts | 184° |
| 2026-04-21 08:27 | 48.82215 | 19.61234 | 38029 ft | 464 kts | 184° |
| 2026-04-21 08:28 | 48.75756 | 19.60885 | 38020 ft | 464 kts | 184° |
| 2026-04-21 08:28 | 48.69338 | 19.60539 | 38014 ft | 463 kts | 184° |
| 2026-04-21 08:29 | 48.62902 | 19.60193 | 38022 ft | 462 kts | 184° |
| 2026-04-21 08:29 | 48.56486 | 19.59849 | 38024 ft | 461 kts | 184° |
| 2026-04-21 08:30 | 48.50079 | 19.59506 | 38000 ft | 460 kts | 184° |
| 2026-04-21 08:30 | 48.43691 | 19.59166 | 38020 ft | 459 kts | 185° |
| 2026-04-21 08:31 | 48.37310 | 19.58826 | 38022 ft | 458 kts | 185° |
| 2026-04-21 08:31 | 48.30938 | 19.58488 | 38041 ft | 458 kts | 185° |
| 2026-04-21 08:32 | 48.24555 | 19.58149 | 38014 ft | 460 kts | 185° |
| 2026-04-21 08:32 | 48.18161 | 19.57811 | 38028 ft | 460 kts | 185° |
| 2026-04-21 08:33 | 48.11769 | 19.57474 | 38033 ft | 460 kts | 185° |
| 2026-04-21 08:33 | 48.05357 | 19.57137 | 38021 ft | 461 kts | 185° |
| 2026-04-21 08:34 | 47.98937 | 19.56801 | 38030 ft | 462 kts | 185° |
| 2026-04-21 08:34 | 47.92503 | 19.56464 | 38041 ft | 463 kts | 185° |
| 2026-04-21 08:35 | 47.86053 | 19.56127 | 38027 ft | 464 kts | 185° |
| 2026-04-21 08:35 | 47.79588 | 19.55791 | 38031 ft | 465 kts | 185° |
| 2026-04-21 08:36 | 47.73127 | 19.55456 | 38034 ft | 465 kts | 185° |
| 2026-04-21 08:36 | 47.66656 | 19.55121 | 38036 ft | 465 kts | 185° |
| 2026-04-21 08:37 | 47.60191 | 19.54787 | 38018 ft | 465 kts | 185° |
| 2026-04-21 08:37 | 47.53740 | 19.54455 | 38039 ft | 464 kts | 185° |
| 2026-04-21 08:38 | 47.47296 | 19.54124 | 38052 ft | 463 kts | 185° |
| 2026-04-21 08:38 | 47.40856 | 19.53794 | 38045 ft | 463 kts | 185° |
| 2026-04-21 08:39 | 47.34428 | 19.53465 | 38040 ft | 462 kts | 185° |
| 2026-04-21 08:39 | 47.28004 | 19.53137 | 38038 ft | 461 kts | 185° |
| 2026-04-21 08:40 | 47.21587 | 19.53258 | 38035 ft | 465 kts | 174° |
| 2026-04-21 08:40 | 47.15345 | 19.55869 | 38055 ft | 469 kts | 162° |
| 2026-04-21 08:41 | 47.09245 | 19.59300 | 38037 ft | 469 kts | 162° |
| 2026-04-21 08:41 | 47.03140 | 19.62700 | 38038 ft | 469 kts | 162° |
| 2026-04-21 08:42 | 46.97024 | 19.66031 | 38046 ft | 469 kts | 162° |
| 2026-04-21 08:42 | 46.90899 | 19.69333 | 38038 ft | 469 kts | 163° |
| 2026-04-21 08:43 | 46.84770 | 19.72627 | 38050 ft | 469 kts | 163° |
| 2026-04-21 08:43 | 46.78640 | 19.75915 | 38044 ft | 470 kts | 163° |
| 2026-04-21 08:44 | 46.72508 | 19.79199 | 38046 ft | 470 kts | 163° |
| 2026-04-21 08:44 | 46.66371 | 19.82478 | 38038 ft | 470 kts | 163° |
| 2026-04-21 08:45 | 46.60228 | 19.85751 | 38035 ft | 470 kts | 163° |
| 2026-04-21 08:45 | 46.54078 | 19.89021 | 38039 ft | 471 kts | 163° |
| 2026-04-21 08:46 | 46.47916 | 19.92289 | 38033 ft | 471 kts | 163° |
| 2026-04-21 08:46 | 46.41757 | 19.95549 | 38029 ft | 471 kts | 163° |
| 2026-04-21 08:47 | 46.35640 | 19.98778 | 38033 ft | 471 kts | 163° |
| 2026-04-21 08:47 | 46.29493 | 20.02150 | 38031 ft | 472 kts | 162° |
| 2026-04-21 08:48 | 46.23359 | 20.05568 | 38033 ft | 472 kts | 163° |
| 2026-04-21 08:48 | 46.17122 | 20.08260 | 38036 ft | 463 kts | 178° |
| 2026-04-21 08:49 | 46.10785 | 20.08238 | 38032 ft | 451 kts | 194° |
| 2026-04-21 08:49 | 46.04591 | 20.06721 | 38028 ft | 451 kts | 195° |
| 2026-04-21 08:50 | 45.98398 | 20.05180 | 38024 ft | 452 kts | 195° |
| 2026-04-21 08:50 | 45.92192 | 20.03685 | 38033 ft | 453 kts | 195° |
| 2026-04-21 08:51 | 45.86010 | 20.02226 | 38035 ft | 453 kts | 194° |
| 2026-04-21 08:51 | 45.79743 | 20.00760 | 38021 ft | 453 kts | 195° |
| 2026-04-21 08:52 | 45.73555 | 19.99316 | 38040 ft | 452 kts | 195° |
| 2026-04-21 08:52 | 45.67330 | 19.97865 | 38031 ft | 452 kts | 195° |
| 2026-04-21 08:53 | 45.62172 | 19.96665 | 38034 ft | 451 kts | 195° |
| 2026-04-21 08:53 | 45.55991 | 19.95230 | 38031 ft | 449 kts | 195° |
| 2026-04-21 08:54 | 45.49817 | 19.93799 | 38031 ft | 448 kts | 195° |
| 2026-04-21 08:54 | 45.43662 | 19.92375 | 38034 ft | 447 kts | 195° |